M I D A S
Marine Information and Data Acquisition System
Tripno 2026 of the Zeeleeuw from 2010-11-25 07:16:49 to 2010-11-25 15:35:39
Back to CruiseResearch ActivitiesStationsMapUnderway DataData graphs

EquipmentUnitsComment
TimeDGPSUTC
LatitudeDGPSDM.mWGS84
LongitudeDGPSDM.mWGS84
TemperatureSBE03/SBE38deg celciusITS90
ConductivitySBE21S/mITS90
SalinitySBE21 Practical Salinity Units
ChlorophylAChelsea fluorimeterg/lCalibrated in Aceton
Missing or incorrect values are displayed as -999
Sea surface data collected by the RV Zeeleeuw from 2010-11-25 07:11:19 to 2010-11-25 15:47:48
Time Latitude Longitude Temperature Conductivity Salinity ChlorophylA
2010-11-25 07:12:24 51°13.662 2°55.959 14.0597 0.634008 4.133767 -0.58268
2010-11-25 07:13:24 51°13.662 2°55.959 14.071 0.634008 4.133767 -0.547855
2010-11-25 07:14:24 51°13.662 2°55.958 14.0764 0.634008 4.134138 -0.513031
2010-11-25 07:15:24 51°13.662 2°55.959 14.0742 0.633903 4.133854 -0.547855
2010-11-25 07:16:24 51°13.663 2°55.959 14.0871 0.633903 4.134374 -0.547855
2010-11-25 07:17:24 51°13.663 2°55.96 14.0766 0.633903 4.134745 -0.547855
2010-11-25 07:18:24 51°13.663 2°55.96 14.0864 0.633903 4.134968 -0.547855
2010-11-25 07:19:24 51°13.663 2°55.96 14.1202 0.633903 4.135117 -0.547855
2010-11-25 07:20:24 51°13.664 2°55.961 14.1132 0.633903 4.135265 -0.547855
2010-11-25 07:21:24 51°13.66 2°55.962 14.1074 0.633903 4.135637 -0.58268
2010-11-25 07:22:24 51°13.66 2°55.96 14.1204 0.633903 4.13638 -0.513031
2010-11-25 07:23:24 51°13.665 2°55.944 14.0717 0.633903 4.137123 -0.547855
2010-11-25 07:24:28 51°13.689 2°55.842 14.1272 0.633903 4.137123 -0.547855
2010-11-25 07:25:27 51°13.704 2°55.753 14.106 0.633903 4.136826 -0.547855
2010-11-25 07:26:25 51°13.707 2°55.722 14.1109 0.633903 4.136528 -0.58268
2010-11-25 07:27:24 51°13.737 2°55.704 14.1509 0.633799 4.135873 -0.547855
2010-11-25 07:28:25 51°13.843 2°55.626 14.0226 0.633799 4.136765 -0.547855
2010-11-25 07:29:24 51°13.965 2°55.544 14.1014 0.633799 4.137212 -0.58268
2010-11-25 07:30:25 51°14.081 2°55.465 14.1007 0.633799 4.137435 -0.547855
2010-11-25 07:31:28 51°14.197 2°55.38 14.1183 0.633799 4.137733 -0.547855
2010-11-25 07:32:27 51°14.336 2°55.257 14.0505 0.633799 4.138774 -0.547855
2010-11-25 07:33:27 51°14.494 2°55.064 13.8185 0.633799 4.140115 -0.547855
2010-11-25 07:34:25 51°14.661 2°54.866 13.8311 0.63359 4.138952 -0.547855
2010-11-25 07:35:24 51°14.84 2°54.675 13.8414 0.633799 4.140711 -0.547855
2010-11-25 07:36:24 51°15.027 2°54.514 9.0179 1.706077 12.376977 0.009329
2010-11-25 07:37:24 51°15.207 2°54.359 8.837 3.366884 31.000598 -0.129967
2010-11-25 07:38:24 51°15.394 2°54.209 8.8129 3.409895 31.712313 -0.129967
2010-11-25 07:39:24 51°15.581 2°54.053 8.7625 3.456912 32.234548 -0.199615
2010-11-25 07:40:24 51°15.735 2°53.812 8.717 3.468403 32.407671 -0.234439
2010-11-25 07:41:24 51°15.893 2°53.562 8.7182 3.449428 32.243106 -0.269263
2010-11-25 07:42:24 51°16.036 2°53.301 8.7204 3.474729 32.52396 -0.234439
2010-11-25 07:43:24 51°16.214 2°53.114 8.6927 3.471883 32.505728 -0.234439
2010-11-25 07:44:24 51°16.397 2°52.947 8.7404 3.475046 32.557571 -0.199615
2010-11-25 07:45:24 51°16.581 2°52.78 8.7806 3.492757 32.696954 -0.234439
2010-11-25 07:46:24 51°16.777 2°52.661 8.8054 3.50351 32.775234 -0.234439
2010-11-25 07:47:24 51°16.976 2°52.56 8.8693 3.512155 32.851347 -0.234439
2010-11-25 07:48:24 51°17.173 2°52.456 8.8818 3.536193 33.041393 -0.199615
2010-11-25 07:49:24 51°17.37 2°52.352 8.8835 3.537458 33.0622 -0.269263
2010-11-25 07:50:23 51°17.568 2°52.319 8.9465 3.541675 33.077616 -0.269263
2010-11-25 07:51:24 51°17.76 2°52.304 8.94 3.556963 33.190202 -0.269263
2010-11-25 07:52:23 51°17.874 2°52.29 8.9124 3.563184 33.272448 -0.269263
2010-11-25 07:53:24 51°17.969 2°52.268 8.907 3.554327 33.202055 -0.269263
2010-11-25 07:54:24 51°18.09 2°52.25 8.9245 3.555909 33.217708 -0.234439
2010-11-25 07:55:24 51°18.209 2°52.229 8.9368 3.556225 33.214066 -0.234439
2010-11-25 07:56:23 51°18.318 2°52.214 8.9624 3.559388 33.226892 -0.269263
2010-11-25 07:57:23 51°18.414 2°52.212 8.9643 3.560758 33.224194 -0.269263
2010-11-25 07:58:24 51°18.517 2°52.209 8.9595 3.559071 33.207465 -0.269263
2010-11-25 07:59:24 51°18.631 2°52.208 8.9696 3.555065 33.171286 -0.269263
2010-11-25 08:00:23 51°18.741 2°52.203 8.9687 3.550531 33.112773 -0.269263
2010-11-25 08:01:23 51°18.847 2°52.198 8.9502 3.541569 33.017601 -0.199615
2010-11-25 08:02:24 51°18.948 2°52.192 8.9164 3.529234 32.917237 -0.199615
2010-11-25 08:03:23 51°19.041 2°52.187 8.8961 3.518375 32.832841 -0.234439
2010-11-25 08:04:24 51°19.148 2°52.182 8.8708 3.507094 32.737909 -0.199615
2010-11-25 08:05:24 51°19.257 2°52.171 8.8358 3.498133 32.666209 -0.199615
2010-11-25 08:06:24 51°19.364 2°52.158 8.7735 3.487801 32.595374 -0.234439
2010-11-25 08:07:24 51°19.472 2°52.143 8.6388 3.467982 32.453084 -0.234439
2010-11-25 08:08:24 51°19.572 2°52.129 8.59 3.416328 32.030317 -0.164791
2010-11-25 08:09:24 51°19.659 2°52.113 8.5619 3.391873 31.807983 -0.199615
2010-11-25 08:10:23 51°19.758 2°52.097 8.58 3.379224 31.702387 -0.164791
2010-11-25 08:11:24 51°19.852 2°52.089 8.5706 3.377748 31.67146 -0.164791
2010-11-25 08:12:23 51°19.934 2°52.075 8.5948 3.367102 31.568154 -0.164791
2010-11-25 08:13:23 51°20.031 2°52.06 8.575 3.370686 31.58472 -0.164791
2010-11-25 08:14:23 51°20.132 2°52.046 8.5944 3.368473 31.585359 -0.199615
2010-11-25 08:15:23 51°20.223 2°52.033 8.6591 3.372899 31.601812 -0.164791
2010-11-25 08:16:23 51°20.309 2°52.02 8.6814 3.378907 31.613248 -0.199615
2010-11-25 08:17:23 51°20.4 2°52.004 8.7059 3.378696 31.594835 -0.129967
2010-11-25 08:18:24 51°20.502 2°51.987 8.7484 3.380593 31.586514 -0.129967
2010-11-25 08:19:24 51°20.61 2°52.002 8.7462 3.382595 31.585186 -0.129967
2010-11-25 08:20:24 51°20.714 2°52.033 8.8131 3.385336 31.596648 -0.164791
2010-11-25 08:21:24 51°20.817 2°52.059 8.8642 3.395138 31.645864 -0.164791
2010-11-25 08:22:24 51°20.905 2°52.08 8.8636 3.401463 31.674476 -0.164791
2010-11-25 08:23:23 51°20.999 2°52.101 8.8829 3.402728 31.683868 -0.199615
2010-11-25 08:24:23 51°21.089 2°52.129 8.8857 3.407366 31.717068 -0.199615
2010-11-25 08:25:24 51°21.189 2°52.152 8.8909 3.407998 31.722129 -0.199615
2010-11-25 08:26:24 51°21.291 2°52.182 8.9034 3.408314 31.717305 -0.199615
2010-11-25 08:27:24 51°21.392 2°52.205 8.9113 3.409368 31.719365 -0.199615
2010-11-25 08:28:24 51°21.492 2°52.231 8.9134 3.410422 31.722895 -0.199615
2010-11-25 08:29:24 51°21.595 2°52.26 8.9032 3.410949 31.72907 -0.234439
2010-11-25 08:30:24 51°21.701 2°52.288 8.897 3.410422 31.731717 -0.199615
2010-11-25 08:31:24 51°21.804 2°52.323 8.8949 3.410528 31.737954 -0.199615
2010-11-25 08:32:24 51°21.905 2°52.355 8.8873 3.410528 31.740897 -0.234439
2010-11-25 08:33:24 51°22.004 2°52.389 8.8858 3.411266 31.756615 -0.234439
2010-11-25 08:34:23 51°22.115 2°52.429 8.8869 3.41369 31.780922 -0.199615
2010-11-25 08:35:24 51°22.22 2°52.469 8.8709 3.418434 31.82919 -0.234439
2010-11-25 08:36:23 51°22.322 2°52.505 8.8519 3.416326 31.823643 -0.164791
2010-11-25 08:37:24 51°22.421 2°52.537 8.8591 3.418329 31.858391 -0.234439
2010-11-25 08:38:24 51°22.522 2°52.572 9.0092 3.433509 31.993149 -0.234439
2010-11-25 08:39:24 51°22.61 2°52.603 9.1449 3.476097 32.29021 -0.304087
2010-11-25 08:40:24 51°22.693 2°52.63 9.1569 3.500449 32.448661 -0.304087
2010-11-25 08:41:24 51°22.773 2°52.656 9.1811 3.506142 32.490088 -0.269263
2010-11-25 08:42:24 51°22.869 2°52.688 9.2075 3.510886 32.519479 -0.269263
2010-11-25 08:43:24 51°22.969 2°52.72 9.2069 3.515525 32.544772 -0.304087
2010-11-25 08:44:23 51°23.082 2°52.76 9.2023 3.517739 32.573528 -0.304087
2010-11-25 08:45:24 51°23.192 2°52.796 9.3506 3.529336 32.663595 -0.338911
2010-11-25 08:46:24 51°23.294 2°52.832 9.3812 3.553268 32.797681 -0.338911
2010-11-25 08:47:24 51°23.398 2°52.866 9.3887 3.559594 32.840058 -0.338911
2010-11-25 08:48:24 51°23.492 2°52.902 9.3976 3.562651 32.863153 -0.338911
2010-11-25 08:49:24 51°23.581 2°52.937 9.4052 3.563917 32.867867 -0.338911
2010-11-25 08:50:24 51°23.671 2°52.967 9.3938 3.564865 32.87309 -0.304087
2010-11-25 08:51:24 51°23.768 2°53 9.4009 3.564549 32.877355 -0.338911
2010-11-25 08:52:24 51°23.854 2°53.029 9.4199 3.566552 32.890382 -0.338911
2010-11-25 08:53:24 51°23.955 2°53.062 9.431 3.568977 32.897214 -0.338911
2010-11-25 08:54:24 51°24.053 2°53.093 9.4328 3.570453 32.90408 -0.338911
2010-11-25 08:55:24 51°24.147 2°53.111 9.4368 3.571508 32.912628 -0.338911
2010-11-25 08:56:24 51°24.24 2°53.127 9.4451 3.573616 32.928973 -0.338911
2010-11-25 08:57:24 51°24.331 2°53.14 9.4543 3.575092 32.935079 -0.304087
2010-11-25 08:58:24 51°24.408 2°53.137 9.4592 3.578361 32.96104 -0.338911
2010-11-25 08:59:24 51°24.502 2°53.133 9.4548 3.580681 32.981035 -0.373735
2010-11-25 09:00:24 51°24.607 2°53.129 9.432 3.580048 32.982827 -0.338911
2010-11-25 09:01:24 51°24.705 2°53.133 9.4761 3.579099 32.985893 -0.373735
2010-11-25 09:02:24 51°24.8 2°53.149 9.5098 3.590697 33.058763 -0.338911
2010-11-25 09:03:24 51°24.891 2°53.165 9.5258 3.595547 33.084308 -0.338911
2010-11-25 09:04:24 51°24.985 2°53.18 9.541 3.599132 33.108182 -0.304087
2010-11-25 09:05:24 51°25.086 2°53.202 9.5456 3.600714 33.113063 -0.304087
2010-11-25 09:06:24 51°25.187 2°53.224 9.5594 3.602717 33.126771 -0.338911
2010-11-25 09:07:24 51°25.292 2°53.244 9.5633 3.604931 33.138113 -0.338911
2010-11-25 09:08:24 51°25.399 2°53.265 9.5698 3.606196 33.148034 -0.338911
2010-11-25 09:09:24 51°25.501 2°53.286 9.5626 3.606196 33.147281 -0.373735
2010-11-25 09:10:24 51°25.576 2°53.303 9.5689 3.607989 33.166358 -0.338911
2010-11-25 09:11:24 51°25.658 2°53.319 9.582 3.60957 33.176497 -0.338911
2010-11-25 09:12:24 51°25.751 2°53.334 9.593 3.612945 33.198167 -0.338911
2010-11-25 09:13:24 51°25.843 2°53.339 9.5937 3.615053 33.211423 -0.338911
2010-11-25 09:14:24 51°25.935 2°53.317 9.6021 3.616002 33.221119 -0.373735
2010-11-25 09:15:24 51°26.025 2°53.295 9.6149 3.61906 33.241801 -0.373735
2010-11-25 09:16:24 51°26.114 2°53.273 9.6277 3.623172 33.27249 -0.373735
2010-11-25 09:17:24 51°26.213 2°53.251 9.6306 3.626547 33.297893 -0.373735
2010-11-25 09:18:24 51°26.315 2°53.228 9.6303 3.62971 33.325667 -0.338911
2010-11-25 09:19:24 51°26.417 2°53.208 9.6459 3.634139 33.370902 -0.373735
2010-11-25 09:20:24 51°26.519 2°53.185 9.6394 3.639095 33.411683 -0.373735
2010-11-25 09:21:24 51°26.607 2°53.163 9.6428 3.640676 33.431629 -0.373735
2010-11-25 09:22:24 51°26.701 2°53.14 9.7202 3.647847 33.492744 -0.338911
2010-11-25 09:23:23 51°26.784 2°53.122 9.7747 3.663874 33.587269 -0.373735
2010-11-25 09:24:24 51°26.88 2°53.101 9.8243 3.67347 33.634223 -0.304087
2010-11-25 09:25:24 51°26.972 2°53.084 9.8499 3.679797 33.658433 -0.304087
2010-11-25 09:26:24 51°27.06 2°53.07 9.8655 3.683698 33.673863 -0.338911
2010-11-25 09:27:24 51°27.156 2°53.053 9.8786 3.686018 33.683051 -0.304087
2010-11-25 09:28:24 51°27.246 2°53.034 9.8945 3.689287 33.702643 -0.304087
2010-11-25 09:29:24 51°27.346 2°53.016 9.9121 3.691818 33.716997 -0.304087
2010-11-25 09:30:24 51°27.438 2°53.001 9.9366 3.695719 33.73769 -0.304087
2010-11-25 09:31:24 51°27.531 2°52.983 9.9528 3.699726 33.759438 -0.304087
2010-11-25 09:32:24 51°27.63 2°52.962 9.9695 3.703101 33.779297 -0.338911
2010-11-25 09:33:25 51°27.704 2°52.947 9.9592 3.705843 33.79348 -0.304087
2010-11-25 09:34:24 51°27.758 2°52.932 9.9668 3.70637 33.800351 -0.304087
2010-11-25 09:35:24 51°27.834 2°52.91 9.9605 3.706686 33.803563 -0.304087
2010-11-25 09:36:24 51°27.926 2°52.889 9.9647 3.705948 33.798345 -0.338911
2010-11-25 09:37:24 51°28.01 2°52.864 9.9659 3.706792 33.804634 -0.338911
2010-11-25 09:38:24 51°28.119 2°52.842 9.9651 3.707214 33.805881 -0.373735
2010-11-25 09:39:24 51°28.249 2°52.814 9.9656 3.707108 33.808605 -0.338911
2010-11-25 09:40:25 51°28.366 2°52.792 9.9762 3.708479 33.817969 -0.338911
2010-11-25 09:41:23 51°28.487 2°52.763 10.0018 3.711643 33.840215 -0.338911
2010-11-25 09:42:23 51°28.594 2°52.706 10.0457 3.718919 33.885954 -0.338911
2010-11-25 09:43:24 51°28.648 2°52.511 10.0651 3.725879 33.921594 -0.304087
2010-11-25 09:44:24 51°28.6 2°52.289 10.0832 3.72957 33.937734 -0.304087
2010-11-25 09:45:24 51°28.479 2°52.152 10.0992 3.732944 33.955974 -0.338911
2010-11-25 09:46:24 51°28.354 2°52.069 10.098 3.736003 33.972517 -0.338911
2010-11-25 09:47:24 51°28.237 2°52.003 10.0934 3.737057 33.980158 -0.338911
2010-11-25 09:48:24 51°28.125 2°51.935 10.0802 3.735686 33.970073 -0.304087
2010-11-25 09:49:23 51°28.016 2°51.867 10.0618 3.733472 33.962075 -0.304087
2010-11-25 09:50:23 51°27.903 2°51.8 10.0523 3.730519 33.944313 -0.338911
2010-11-25 09:51:24 51°27.792 2°51.736 10.0659 3.728304 33.930227 -0.304087
2010-11-25 09:52:23 51°27.681 2°51.675 10.0577 3.729781 33.937593 -0.338911
2010-11-25 09:53:23 51°27.569 2°51.612 10.0635 3.729464 33.935146 -0.338911
2010-11-25 09:54:23 51°27.457 2°51.548 10.0573 3.729043 33.930113 -0.338911
2010-11-25 09:55:23 51°27.347 2°51.485 10.0607 3.729148 33.934979 -0.338911
2010-11-25 09:56:24 51°27.234 2°51.422 10.0551 3.729781 33.939112 -0.338911
2010-11-25 09:57:24 51°27.123 2°51.366 10.0648 3.728937 33.933601 -0.304087
2010-11-25 09:58:24 51°27.016 2°51.309 10.0605 3.728726 33.924629 -0.338911
2010-11-25 09:59:23 51°26.908 2°51.285 10.0647 3.729043 33.930872 -0.304087
2010-11-25 10:00:23 51°26.797 2°51.276 10.0566 3.728832 33.930254 -0.338911
2010-11-25 10:01:24 51°26.684 2°51.264 10.0524 3.727461 33.921677 -0.338911
2010-11-25 10:02:24 51°26.571 2°51.251 10.041 3.725563 33.91231 -0.304087
2010-11-25 10:03:24 51°26.46 2°51.237 10.0341 3.723348 33.898213 -0.304087
2010-11-25 10:04:23 51°26.351 2°51.223 10.0202 3.721977 33.890388 -0.304087
2010-11-25 10:05:24 51°26.237 2°51.208 10.0143 3.720184 33.88132 -0.338911
2010-11-25 10:06:24 51°26.124 2°51.19 9.9932 3.718075 33.868281 -0.304087
2010-11-25 10:07:24 51°26.012 2°51.172 9.9655 3.713013 33.838184 -0.338911
2010-11-25 10:08:24 51°25.898 2°51.15 9.9575 3.708584 33.809931 -0.304087
2010-11-25 10:09:23 51°25.786 2°51.126 9.9471 3.705948 33.794551 -0.338911
2010-11-25 10:10:23 51°25.672 2°51.104 9.9426 3.703839 33.783 -0.304087
2010-11-25 10:11:23 51°25.558 2°51.08 9.9172 3.701835 33.768722 -0.304087
2010-11-25 10:12:24 51°25.441 2°51.048 9.8568 3.697301 33.747694 -0.338911
2010-11-25 10:13:23 51°25.329 2°51.02 9.7409 3.684647 33.688073 -0.373735
2010-11-25 10:14:24 51°25.214 2°50.997 9.6646 3.664929 33.579043 -0.373735
2010-11-25 10:15:23 51°25.102 2°50.971 9.653 3.650272 33.496264 -0.373735
2010-11-25 10:16:23 51°24.987 2°50.943 9.6506 3.645316 33.455519 -0.338911
2010-11-25 10:17:23 51°24.873 2°50.914 9.6451 3.643101 33.434424 -0.338911
2010-11-25 10:18:24 51°24.758 2°50.885 9.6349 3.64036 33.414003 -0.338911
2010-11-25 10:19:23 51°24.645 2°50.858 9.6479 3.637407 33.385369 -0.373735
2010-11-25 10:20:23 51°24.531 2°50.831 9.6647 3.637302 33.377484 -0.373735
2010-11-25 10:21:24 51°24.415 2°50.805 9.6583 3.638778 33.379698 -0.373735
2010-11-25 10:22:24 51°24.3 2°50.777 9.6473 3.636458 33.361314 -0.338911
2010-11-25 10:23:23 51°24.188 2°50.751 9.6353 3.633189 33.339284 -0.373735
2010-11-25 10:24:24 51°24.072 2°50.727 9.642 3.630448 33.321871 -0.304087
2010-11-25 10:25:24 51°23.958 2°50.702 9.6537 3.632029 33.328199 -0.338911
2010-11-25 10:26:23 51°23.845 2°50.687 9.6292 3.633295 33.335072 -0.304087
2010-11-25 10:27:23 51°23.73 2°50.694 9.6337 3.626336 33.288189 -0.373735
2010-11-25 10:28:23 51°23.617 2°50.705 9.677 3.629182 33.302159 -0.338911
2010-11-25 10:29:23 51°23.51 2°50.72 9.6955 3.63572 33.334149 -0.338911
2010-11-25 10:30:24 51°23.399 2°50.733 9.695 3.640043 33.363898 -0.338911
2010-11-25 10:31:24 51°23.289 2°50.739 9.6775 3.637829 33.345092 -0.373735
2010-11-25 10:32:23 51°23.185 2°50.753 9.654 3.634138 33.321035 -0.304087
2010-11-25 10:33:23 51°23.077 2°50.764 9.6372 3.62739 33.273305 -0.304087
2010-11-25 10:34:23 51°22.968 2°50.779 9.6225 3.623383 33.246737 -0.304087
2010-11-25 10:35:24 51°22.855 2°50.794 9.598 3.619692 33.224136 -0.338911
2010-11-25 10:36:24 51°22.752 2°50.826 9.5705 3.613788 33.190206 -0.304087
2010-11-25 10:37:24 51°22.68 2°50.922 9.5631 3.608305 33.157537 -0.338911
2010-11-25 10:38:23 51°22.662 2°51.054 9.5478 3.604509 33.129284 -0.338911
2010-11-25 10:39:24 51°22.704 2°51.155 9.4756 3.599448 33.092599 -0.338911
2010-11-25 10:40:23 51°22.763 2°51.257 9.4497 3.581208 32.974409 -0.304087
2010-11-25 10:41:24 51°22.831 2°51.362 9.4269 3.577201 32.950666 -0.338911
2010-11-25 10:42:24 51°22.908 2°51.455 9.4322 3.571508 32.909625 -0.338911
2010-11-25 10:43:24 51°22.988 2°51.552 9.4349 3.57214 32.916105 -0.338911
2010-11-25 10:44:24 51°23.065 2°51.647 9.4454 3.573827 32.922873 -0.373735
2010-11-25 10:45:24 51°23.139 2°51.745 9.4503 3.575303 32.933484 -0.338911
2010-11-25 10:46:24 51°23.212 2°51.841 9.4658 3.576358 32.936022 -0.338911
2010-11-25 10:47:24 51°23.288 2°51.946 9.4794 3.578888 32.950665 -0.338911
2010-11-25 10:48:24 51°23.363 2°52.047 9.4886 3.580259 32.954184 -0.373735
2010-11-25 10:49:24 51°23.444 2°52.158 9.4951 3.583527 32.981623 -0.338911
2010-11-25 10:50:23 51°23.531 2°52.24 9.5053 3.584898 32.987386 -0.338911
2010-11-25 10:51:24 51°23.616 2°52.229 9.5105 3.586796 32.99854 -0.338911
2010-11-25 10:52:23 51°23.66 2°52.099 9.5213 3.588904 33.014851 -0.304087
2010-11-25 10:53:24 51°23.606 2°51.928 9.5367 3.593333 33.04436 -0.338911
2010-11-25 10:54:23 51°23.546 2°51.775 9.5149 3.595125 33.058177 -0.338911
2010-11-25 10:55:24 51°23.484 2°51.628 9.5042 3.593333 33.053381 -0.373735
2010-11-25 10:56:23 51°23.414 2°51.495 9.5065 3.593333 33.058645 -0.338911
2010-11-25 10:57:24 51°23.337 2°51.376 9.5232 3.595336 33.072367 -0.338911
2010-11-25 10:58:24 51°23.263 2°51.26 9.5327 3.59871 33.094834 -0.338911
2010-11-25 10:59:23 51°23.176 2°51.165 9.5378 3.60103 33.111027 -0.304087
2010-11-25 11:00:23 51°23.081 2°51.078 9.5289 3.601452 33.11534 -0.338911
2010-11-25 11:01:24 51°22.983 2°50.994 9.5162 3.598816 33.094407 -0.304087
2010-11-25 11:02:24 51°22.883 2°50.939 9.5129 3.59618 33.075727 -0.373735
2010-11-25 11:03:23 51°22.783 2°50.898 9.5042 3.596285 33.08132 -0.338911
2010-11-25 11:04:23 51°22.68 2°50.859 9.4789 3.592595 33.051847 -0.338911
2010-11-25 11:05:23 51°22.575 2°50.814 9.4679 3.588166 33.026843 -0.338911
2010-11-25 11:06:24 51°22.47 2°50.765 9.4508 3.583844 32.996882 -0.373735
2010-11-25 11:07:23 51°22.37 2°50.719 9.4413 3.579204 32.964417 -0.338911
2010-11-25 11:08:23 51°22.271 2°50.671 9.4327 3.575303 32.931983 -0.373735
2010-11-25 11:09:23 51°22.182 2°50.625 9.423 3.571824 32.90611 -0.338911
2010-11-25 11:10:24 51°22.09 2°50.556 9.4197 3.569715 32.892017 -0.373735
2010-11-25 11:11:23 51°21.999 2°50.484 9.4081 3.567185 32.873599 -0.373735
2010-11-25 11:12:23 51°21.901 2°50.429 9.4179 3.565182 32.855328 -0.338911
2010-11-25 11:13:24 51°21.796 2°50.407 9.4221 3.56476 32.842015 -0.304087
2010-11-25 11:14:23 51°21.693 2°50.394 9.4346 3.563705 32.829721 -0.338911
2010-11-25 11:15:24 51°21.583 2°50.375 9.4414 3.565181 32.834351 -0.338911
2010-11-25 11:16:23 51°21.478 2°50.364 9.4455 3.565287 32.827945 -0.304087
2010-11-25 11:17:24 51°21.371 2°50.343 9.4393 3.564021 32.815745 -0.304087
2010-11-25 11:18:24 51°21.267 2°50.313 9.2112 3.55875 32.780481 -0.304087
2010-11-25 11:19:24 51°21.16 2°50.282 9.0752 3.491803 32.300952 -0.304087
2010-11-25 11:20:24 51°21.057 2°50.282 9.0316 3.454906 32.025179 -0.338911
2010-11-25 11:21:24 51°20.957 2°50.307 9.0191 3.440359 31.91599 -0.304087
2010-11-25 11:22:24 51°20.856 2°50.331 9.0267 3.436775 31.884239 -0.269263
2010-11-25 11:23:24 51°20.753 2°50.352 9.0339 3.438145 31.890254 -0.304087
2010-11-25 11:24:24 51°20.648 2°50.374 9.028 3.437302 31.877894 -0.304087
2010-11-25 11:25:23 51°20.543 2°50.39 9.0293 3.435088 31.864667 -0.304087
2010-11-25 11:26:24 51°20.439 2°50.427 9.0343 3.435721 31.868972 -0.338911
2010-11-25 11:27:24 51°20.342 2°50.477 9.0572 3.438567 31.892387 -0.304087
2010-11-25 11:28:24 51°20.244 2°50.524 9.0757 3.445946 31.946983 -0.304087
2010-11-25 11:29:24 51°20.147 2°50.573 9.0815 3.449635 31.968738 -0.269263
2010-11-25 11:30:24 51°20.051 2°50.625 9.1067 3.451006 31.977678 -0.304087
2010-11-25 11:31:24 51°19.958 2°50.678 9.1054 3.457858 32.02972 -0.304087
2010-11-25 11:32:24 51°19.864 2°50.733 9.106 3.458596 32.03657 -0.304087
2010-11-25 11:33:24 51°19.771 2°50.786 9.0894 3.455855 32.009862 -0.199615
2010-11-25 11:34:24 51°19.678 2°50.84 9.0666 3.448265 31.948016 -0.234439
2010-11-25 11:35:24 51°19.583 2°50.897 9.0358 3.44078 31.893101 -0.234439
2010-11-25 11:36:24 51°19.488 2°50.946 9.002 3.432347 31.826904 -0.234439
2010-11-25 11:37:24 51°19.389 2°50.993 8.9102 3.420857 31.747516 -0.234439
2010-11-25 11:38:24 51°19.291 2°51.042 8.8093 3.398194 31.600396 -0.234439
2010-11-25 11:39:24 51°19.192 2°51.092 8.7266 3.372686 31.424782 -0.234439
2010-11-25 11:40:24 51°19.093 2°51.145 8.706 3.355295 31.296785 -0.234439
2010-11-25 11:41:24 51°18.993 2°51.194 8.694 3.343806 31.199787 -0.234439
2010-11-25 11:42:24 51°18.893 2°51.244 8.6731 3.331053 31.084559 -0.199615
2010-11-25 11:43:24 51°18.793 2°51.29 8.637 3.318511 30.977246 -0.199615
2010-11-25 11:44:24 51°18.695 2°51.337 8.637 3.306706 30.879651 -0.199615
2010-11-25 11:45:24 51°18.596 2°51.385 8.622 3.303123 30.845453 -0.199615
2010-11-25 11:46:24 51°18.496 2°51.431 8.6125 3.297432 30.795919 -0.199615
2010-11-25 11:47:24 51°18.396 2°51.477 8.6237 3.292057 30.745332 -0.199615
2010-11-25 11:48:24 51°18.298 2°51.527 8.6389 3.293637 30.748042 -0.164791
2010-11-25 11:49:24 51°18.202 2°51.579 8.66 3.298802 30.792835 -0.129967
2010-11-25 11:50:24 51°18.108 2°51.635 8.6994 3.307022 30.856987 -0.129967
2010-11-25 11:51:24 51°18.014 2°51.691 8.6956 3.317456 30.939637 -0.025495
2010-11-25 11:52:24 51°17.921 2°51.75 8.6782 3.317562 30.944333 0.009329
2010-11-25 11:53:24 51°17.828 2°51.808 8.6459 3.313241 30.914801 0.044153
2010-11-25 11:54:24 51°17.735 2°51.871 8.6108 3.3105 30.910979 0.044153
2010-11-25 11:55:24 51°17.649 2°51.95 8.5669 3.303756 30.884451 0.044153
2010-11-25 11:56:24 51°17.566 2°52.039 8.5535 3.295113 30.818722 0.078977
2010-11-25 11:57:24 51°17.484 2°52.131 8.5427 3.292057 30.800023 0.009329
2010-11-25 11:58:23 51°17.4 2°52.216 8.5301 3.286471 30.75725 0.044153
2010-11-25 11:59:24 51°17.315 2°52.305 8.535 3.285101 30.741605 0.044153
2010-11-25 12:00:24 51°17.232 2°52.395 8.5468 3.288158 30.772572 0.113802
2010-11-25 12:01:24 51°17.151 2°52.485 8.5443 3.290687 30.790867 0.078977
2010-11-25 12:02:24 51°17.072 2°52.578 8.549 3.286366 30.748955 0.078977
2010-11-25 12:03:24 51°16.997 2°52.673 8.5532 3.283626 30.714081 0.044153
2010-11-25 12:04:24 51°16.921 2°52.778 8.5461 3.278356 30.663072 0.009329
2010-11-25 12:05:24 51°16.848 2°52.899 8.5242 3.270557 30.593743 0.078977
2010-11-25 12:06:24 51°16.781 2°53.027 8.5337 3.26866 30.579818 0.18345
2010-11-25 12:07:23 51°16.734 2°53.169 8.5248 3.274562 30.640264 0.18345
2010-11-25 12:08:24 51°16.69 2°53.323 8.5204 3.274984 30.648224 0.18345
2010-11-25 12:09:24 51°16.662 2°53.48 8.5133 3.272981 30.633209 0.18345
2010-11-25 12:10:24 51°16.639 2°53.64 8.5081 3.267712 30.582885 0.218274
2010-11-25 12:11:24 51°16.614 2°53.799 8.4907 3.266131 30.572947 0.18345
2010-11-25 12:12:23 51°16.587 2°53.955 8.4819 3.261178 30.536632 0.18345
2010-11-25 12:13:23 51°16.559 2°54.115 8.4772 3.254539 30.469218 0.18345
2010-11-25 12:14:23 51°16.53 2°54.275 8.4757 3.248532 30.417649 0.18345
2010-11-25 12:15:24 51°16.515 2°54.437 8.472 3.245792 30.392093 0.18345
2010-11-25 12:16:23 51°16.515 2°54.594 8.4595 3.244316 30.38036 0.18345
2010-11-25 12:17:24 51°16.518 2°54.756 8.4484 3.242314 30.370291 0.148626
2010-11-25 12:18:24 51°16.504 2°54.918 8.4503 3.241366 30.364731 0.148626
2010-11-25 12:19:24 51°16.48 2°55.08 8.4506 3.239047 30.339259 0.113802
2010-11-25 12:20:23 51°16.455 2°55.239 8.4397 3.239047 30.340684 0.113802
2010-11-25 12:21:23 51°16.431 2°55.402 8.4299 3.240839 30.369963 0.113802
2010-11-25 12:22:23 51°16.407 2°55.566 8.4095 3.241682 30.390848 0.113802
2010-11-25 12:23:24 51°16.384 2°55.731 8.4029 3.242947 30.416128 0.113802
2010-11-25 12:24:23 51°16.364 2°55.894 8.3824 3.242315 30.419574 0.078977
2010-11-25 12:25:24 51°16.344 2°56.063 8.3811 3.24379 30.444211 0.009329
2010-11-25 12:26:24 51°16.347 2°56.226 8.3816 3.244106 30.452512 0.078977
2010-11-25 12:27:24 51°16.414 2°56.326 8.3802 3.243896 30.451038 0.078977
2010-11-25 12:28:23 51°16.485 2°56.328 8.3848 3.24495 30.460559 0.078977
2010-11-25 12:29:23 51°16.54 2°56.221 8.3892 3.244106 30.450363 0.044153
2010-11-25 12:30:23 51°16.516 2°56.052 8.3922 3.240839 30.407824 0.078977
2010-11-25 12:31:24 51°16.452 2°55.909 8.3935 3.240734 30.405298 0.009329
2010-11-25 12:32:24 51°16.369 2°55.787 8.3845 3.240839 30.407824 0.044153
2010-11-25 12:33:24 51°16.287 2°55.665 8.393 3.241366 30.412583 0.009329
2010-11-25 12:34:23 51°16.208 2°55.543 8.384 3.242631 30.4293 0.009329
2010-11-25 12:35:24 51°16.116 2°55.432 8.3754 3.244001 30.449267 0.044153
2010-11-25 12:36:24 51°16.016 2°55.343 8.3698 3.24495 30.463426 0.009329
2010-11-25 12:37:23 51°15.917 2°55.26 8.3682 3.247795 30.501622 0.009329
2010-11-25 12:38:23 51°15.818 2°55.171 8.345 3.249903 30.527137 -0.025495
2010-11-25 12:39:24 51°15.719 2°55.077 8.351 3.252959 30.570447 0.044153
2010-11-25 12:40:23 51°15.624 2°54.987 8.3531 3.258545 30.627143 0.009329
2010-11-25 12:41:24 51°15.523 2°54.897 8.3593 3.262655 30.664876 0.009329
2010-11-25 12:42:23 51°15.428 2°54.809 8.3483 3.263077 30.671432 0.009329
2010-11-25 12:43:24 51°15.332 2°54.722 8.3711 3.268241 30.728095 -0.025495
2010-11-25 12:44:23 51°15.244 2°54.637 8.36 3.282258 30.858127 -0.060319
2010-11-25 12:45:24 51°15.152 2°54.554 8.3578 3.287317 30.921744 -0.129967
2010-11-25 12:46:24 51°15.049 2°54.511 8.3588 3.28426 30.889166 -0.129967
2010-11-25 12:47:24 51°14.944 2°54.479 8.3726 3.282258 30.858853 -0.164791
2010-11-25 12:48:23 51°14.844 2°54.431 8.3672 3.281625 30.849362 -0.095143
2010-11-25 12:49:23 51°14.76 2°54.343 8.3412 3.279623 30.826331 -0.025495
2010-11-25 12:50:24 51°14.677 2°54.249 8.3208 3.276356 30.817705 -0.095143
2010-11-25 12:51:24 51°14.588 2°54.169 8.3158 3.278991 30.858976 -0.060319
2010-11-25 12:52:24 51°14.501 2°54.089 8.2985 3.281942 30.908689 -0.095143
2010-11-25 12:53:24 51°14.414 2°54.006 8.297 3.289952 31.001784 -0.129967
2010-11-25 12:54:24 51°14.345 2°53.901 8.2888 3.296486 31.068552 -0.095143
2010-11-25 12:55:24 51°14.282 2°53.787 8.2941 3.300808 31.115888 -0.129967
2010-11-25 12:56:23 51°14.217 2°53.676 8.3039 3.306499 31.17682 -0.129967
2010-11-25 12:57:24 51°14.149 2°53.562 8.3184 3.309661 31.198082 -0.129967
2010-11-25 12:58:23 51°14.084 2°53.451 8.3218 3.312401 31.221555 -0.164791
2010-11-25 12:59:23 51°14.018 2°53.343 8.3467 3.318303 31.269945 -0.129967
2010-11-25 13:00:24 51°13.962 2°53.225 8.3647 3.336959 31.444126 -0.164791
2010-11-25 13:01:24 51°13.924 2°53.095 8.3857 3.350345 31.56839 -0.164791
2010-11-25 13:02:24 51°13.883 2°52.957 8.4099 3.364785 31.70214 -0.164791
2010-11-25 13:03:24 51°13.833 2°52.812 8.4247 3.377434 31.81338 -0.164791
2010-11-25 13:04:23 51°13.784 2°52.665 8.446 3.387869 31.907426 -0.199615
2010-11-25 13:05:23 51°13.736 2°52.519 8.4632 3.399359 32.010946 -0.164791
2010-11-25 13:06:24 51°13.687 2°52.37 8.4796 3.410849 32.114423 -0.199615
2010-11-25 13:07:23 51°13.64 2°52.225 8.4958 3.419282 32.185164 -0.199615
2010-11-25 13:08:23 51°13.591 2°52.078 8.502 3.422549 32.207209 -0.199615
2010-11-25 13:09:24 51°13.542 2°51.927 8.502 3.421917 32.199848 -0.234439
2010-11-25 13:10:24 51°13.495 2°51.78 8.5148 3.424025 32.215064 -0.199615
2010-11-25 13:11:24 51°13.447 2°51.632 8.5766 3.434356 32.301749 -0.199615
2010-11-25 13:12:24 51°13.4 2°51.489 8.6085 3.449957 32.419856 -0.199615
2010-11-25 13:13:24 51°13.352 2°51.346 8.6627 3.463661 32.524816 -0.199615
2010-11-25 13:14:24 51°13.306 2°51.201 8.6525 3.469143 32.548506 -0.199615
2010-11-25 13:15:24 51°13.259 2°51.057 8.6502 3.463872 32.500425 -0.234439
2010-11-25 13:16:24 51°13.208 2°50.918 8.6767 3.469038 32.547408 -0.164791
2010-11-25 13:17:24 51°13.159 2°50.779 8.6793 3.476417 32.606793 -0.199615
2010-11-25 13:18:24 51°13.108 2°50.644 8.6795 3.475152 32.589053 -0.234439
2010-11-25 13:19:24 51°13.062 2°50.505 8.6719 3.469564 32.53239 -0.199615
2010-11-25 13:20:24 51°13.007 2°50.375 8.6693 3.465453 32.49641 -0.234439
2010-11-25 13:21:24 51°12.952 2°50.243 8.6603 3.463555 32.478926 -0.234439
2010-11-25 13:22:23 51°12.898 2°50.112 8.6556 3.462712 32.477725 -0.199615
2010-11-25 13:23:24 51°12.845 2°49.978 8.6442 3.460604 32.460316 -0.234439
2010-11-25 13:24:23 51°12.792 2°49.846 8.6346 3.457863 32.440861 -0.269263
2010-11-25 13:25:24 51°12.738 2°49.714 8.6396 3.45702 32.437379 -0.234439
2010-11-25 13:26:24 51°12.685 2°49.585 8.6561 3.460604 32.471689 -0.269263
2010-11-25 13:27:24 51°12.632 2°49.462 8.6638 3.466613 32.516833 -0.234439
2010-11-25 13:28:23 51°12.58 2°49.334 8.6831 3.469248 32.53593 -0.234439
2010-11-25 13:29:23 51°12.526 2°49.205 8.6907 3.47336 32.566591 -0.269263
2010-11-25 13:30:24 51°12.473 2°49.074 8.7047 3.477787 32.608894 -0.234439
2010-11-25 13:31:24 51°12.42 2°48.946 8.735 3.486116 32.675817 -0.234439
2010-11-25 13:32:24 51°12.364 2°48.822 8.7321 3.494128 32.735588 -0.234439
2010-11-25 13:33:23 51°12.312 2°48.7 8.733 3.497291 32.769267 -0.234439
2010-11-25 13:34:24 51°12.256 2°48.576 8.714 3.498134 32.781864 -0.304087
2010-11-25 13:35:23 51°12.205 2°48.457 8.699 3.49592 32.773326 -0.234439
2010-11-25 13:36:23 51°12.151 2°48.333 8.7113 3.494128 32.767647 -0.234439
2010-11-25 13:37:23 51°12.098 2°48.213 8.6739 3.494972 32.777197 -0.269263
2010-11-25 13:38:24 51°12.056 2°48.082 8.6379 3.490439 32.755948 -0.234439
2010-11-25 13:39:23 51°12.026 2°47.95 8.6304 3.484641 32.729128 -0.269263
2010-11-25 13:40:24 51°11.996 2°47.808 8.6402 3.488752 32.762837 -0.304087
2010-11-25 13:41:24 51°11.964 2°47.666 8.6294 3.490334 32.785459 -0.234439
2010-11-25 13:42:23 51°11.931 2°47.523 8.6222 3.489385 32.787817 -0.269263
2010-11-25 13:43:24 51°11.897 2°47.375 8.6342 3.492337 32.817095 -0.304087
2010-11-25 13:44:24 51°11.861 2°47.238 8.6355 3.496343 32.852772 -0.269263
2010-11-25 13:45:23 51°11.827 2°47.098 8.6409 3.498557 32.874346 -0.269263
2010-11-25 13:46:24 51°11.793 2°46.952 8.6682 3.503301 32.912337 -0.304087
2010-11-25 13:47:24 51°11.759 2°46.808 8.6855 3.509099 32.956698 -0.269263
2010-11-25 13:48:24 51°11.726 2°46.662 8.7021 3.514054 32.989154 -0.304087
2010-11-25 13:49:24 51°11.689 2°46.518 8.7142 3.51785 33.014111 -0.304087
2010-11-25 13:50:24 51°11.656 2°46.372 8.7404 3.52175 33.040923 -0.269263
2010-11-25 13:51:24 51°11.622 2°46.222 8.7578 3.528287 33.082089 -0.304087
2010-11-25 13:52:24 51°11.585 2°46.069 8.7812 3.534086 33.127858 -0.304087
2010-11-25 13:53:24 51°11.55 2°45.917 8.8033 3.538724 33.155351 -0.269263
2010-11-25 13:54:24 51°11.514 2°45.765 8.8377 3.543574 33.185017 -0.304087
2010-11-25 13:55:24 51°11.477 2°45.61 8.8531 3.548845 33.215958 -0.304087
2010-11-25 13:56:24 51°11.438 2°45.456 8.8735 3.553484 33.243377 -0.304087
2010-11-25 13:57:24 51°11.401 2°45.302 8.893 3.557385 33.26696 -0.304087
2010-11-25 13:58:24 51°11.362 2°45.144 8.9044 3.560654 33.287811 -0.269263
2010-11-25 13:59:24 51°11.324 2°44.984 8.915 3.562235 33.290353 -0.304087
2010-11-25 14:00:24 51°11.285 2°44.821 8.9222 3.56466 33.301654 -0.269263
2010-11-25 14:01:24 51°11.246 2°44.657 8.9287 3.565609 33.306108 -0.304087
2010-11-25 14:02:24 51°11.208 2°44.494 8.9531 3.56835 33.326086 -0.304087
2010-11-25 14:03:24 51°11.17 2°44.334 8.9715 3.575098 33.377611 -0.269263
2010-11-25 14:04:24 51°11.133 2°44.173 8.9828 3.579105 33.403744 -0.304087
2010-11-25 14:05:24 51°11.096 2°44.012 8.9967 3.582584 33.429029 -0.269263
2010-11-25 14:06:24 51°11.034 2°43.879 9.0086 3.587645 33.466842 -0.338911
2010-11-25 14:07:24 51°10.917 2°43.89 8.9667 3.590386 33.48522 -0.304087
2010-11-25 14:08:24 51°10.826 2°44.057 8.9218 3.576047 33.392872 -0.304087
2010-11-25 14:09:23 51°10.803 2°44.29 8.9091 3.566769 33.324328 -0.304087
2010-11-25 14:10:24 51°10.848 2°44.522 8.8947 3.559705 33.268691 -0.269263
2010-11-25 14:11:23 51°10.899 2°44.738 8.8682 3.55359 33.223651 -0.234439
2010-11-25 14:12:24 51°10.95 2°44.952 8.8508 3.55011 33.202128 -0.234439
2010-11-25 14:13:24 51°11.007 2°45.132 8.8388 3.547158 33.188386 -0.234439
2010-11-25 14:14:24 51°11.064 2°45.298 8.8362 3.545155 33.172176 -0.199615
2010-11-25 14:15:24 51°11.119 2°45.461 8.8207 3.543574 33.166512 -0.199615
2010-11-25 14:16:24 51°11.174 2°45.627 8.8092 3.541782 33.157882 -0.234439
2010-11-25 14:17:24 51°11.235 2°45.791 8.7937 3.538302 33.133233 -0.234439
2010-11-25 14:18:24 51°11.299 2°45.958 8.7844 3.536299 33.126248 -0.234439
2010-11-25 14:19:24 51°11.362 2°46.127 8.7706 3.533874 33.111016 -0.199615
2010-11-25 14:20:24 51°11.426 2°46.299 8.7577 3.531766 33.099843 -0.269263
2010-11-25 14:21:24 51°11.492 2°46.472 8.7525 3.530079 33.094599 -0.234439
2010-11-25 14:22:24 51°11.559 2°46.646 8.742 3.528076 33.081433 -0.234439
2010-11-25 14:23:23 51°11.622 2°46.817 8.7293 3.525335 33.062882 -0.234439
2010-11-25 14:24:24 51°11.687 2°46.993 8.714 3.522805 33.048062 -0.199615
2010-11-25 14:25:24 51°11.75 2°47.163 8.704 3.51806 33.011691 -0.269263
2010-11-25 14:26:24 51°11.809 2°47.32 8.6902 3.514476 32.984318 -0.234439
2010-11-25 14:27:24 51°11.866 2°47.468 8.6813 3.510997 32.958034 -0.199615
2010-11-25 14:28:24 51°11.924 2°47.614 8.6779 3.508045 32.93647 -0.199615
2010-11-25 14:29:24 51°11.977 2°47.758 8.666 3.504777 32.91083 -0.234439
2010-11-25 14:30:24 51°12.028 2°47.894 8.6604 3.501614 32.882443 -0.199615
2010-11-25 14:31:24 51°12.081 2°48.027 8.6479 3.498978 32.858018 -0.234439
2010-11-25 14:32:24 51°12.133 2°48.163 8.6487 3.497081 32.846659 -0.199615
2010-11-25 14:33:24 51°12.184 2°48.299 8.6481 3.496554 32.84653 -0.199615
2010-11-25 14:34:24 51°12.234 2°48.432 8.6512 3.496132 32.840595 -0.234439
2010-11-25 14:35:24 51°12.286 2°48.568 8.6505 3.496343 32.842795 -0.199615
2010-11-25 14:36:24 51°12.339 2°48.706 8.6476 3.496237 32.840928 -0.234439
2010-11-25 14:37:24 51°12.393 2°48.847 8.6521 3.495499 32.836296 -0.234439
2010-11-25 14:38:24 51°12.447 2°48.986 8.6718 3.498135 32.856892 -0.234439
2010-11-25 14:39:24 51°12.501 2°49.127 8.6941 3.505726 32.916887 -0.269263
2010-11-25 14:40:24 51°12.553 2°49.268 8.7184 3.511102 32.956058 -0.269263
2010-11-25 14:41:24 51°12.608 2°49.408 8.7354 3.51806 33.007843 -0.269263
2010-11-25 14:42:24 51°12.659 2°49.543 8.7416 3.52291 33.04146 -0.234439
2010-11-25 14:43:24 51°12.712 2°49.679 8.7498 3.523859 33.04596 -0.269263
2010-11-25 14:44:24 51°12.762 2°49.813 8.7552 3.524913 33.049247 -0.269263
2010-11-25 14:45:24 51°12.815 2°49.95 8.7604 3.525967 33.054073 -0.269263
2010-11-25 14:46:24 51°12.867 2°50.085 8.7634 3.527022 33.060437 -0.234439
2010-11-25 14:47:24 51°12.918 2°50.217 8.7718 3.526389 33.052309 -0.269263
2010-11-25 14:48:24 51°12.97 2°50.35 8.765 3.525651 33.040007 -0.304087
2010-11-25 14:49:24 51°13.021 2°50.485 8.7719 3.524386 33.030677 -0.234439
2010-11-25 14:50:24 51°13.071 2°50.62 8.7763 3.523648 33.016842 -0.234439
2010-11-25 14:51:24 51°13.121 2°50.751 8.7764 3.523226 33.007841 -0.234439
2010-11-25 14:52:24 51°13.171 2°50.886 8.7745 3.522277 33.000267 -0.199615
2010-11-25 14:53:24 51°13.224 2°51.02 8.7763 3.521855 32.992805 -0.199615
2010-11-25 14:54:24 51°13.274 2°51.155 8.7768 3.521117 32.987426 -0.269263
2010-11-25 14:55:24 51°13.323 2°51.288 8.7544 3.519009 32.973151 -0.234439
2010-11-25 14:56:24 51°13.371 2°51.422 8.7429 3.515319 32.94931 -0.234439
2010-11-25 14:57:24 51°13.421 2°51.554 8.7185 3.50952 32.897358 -0.269263
2010-11-25 14:58:24 51°13.47 2°51.684 8.7006 3.500665 32.824265 -0.234439
2010-11-25 14:59:24 51°13.517 2°51.817 8.6859 3.495183 32.78704 -0.234439
2010-11-25 15:00:24 51°13.563 2°51.948 8.6789 3.490966 32.758385 -0.164791
2010-11-25 15:01:24 51°13.607 2°52.075 8.6925 3.487065 32.71544 -0.199615
2010-11-25 15:02:24 51°13.654 2°52.205 8.6991 3.485483 32.693622 -0.234439
2010-11-25 15:03:24 51°13.703 2°52.337 8.7087 3.4858 32.687765 -0.234439
2010-11-25 15:04:24 51°13.753 2°52.477 8.7104 3.482953 32.652789 -0.199615
2010-11-25 15:05:24 51°13.803 2°52.614 8.6966 3.478947 32.611841 -0.234439
2010-11-25 15:06:24 51°13.851 2°52.752 8.6967 3.474203 32.568534 -0.164791
2010-11-25 15:07:24 51°13.898 2°52.892 8.6832 3.471251 32.54312 -0.129967
2010-11-25 15:08:24 51°13.946 2°53.031 8.6814 3.467983 32.515926 -0.129967
2010-11-25 15:09:24 51°13.995 2°53.167 8.6778 3.466296 32.503674 -0.199615
2010-11-25 15:10:24 51°14.043 2°53.306 8.6679 3.464926 32.49168 -0.199615
2010-11-25 15:11:24 51°14.086 2°53.444 8.6659 3.463556 32.489543 -0.164791
2010-11-25 15:12:24 51°14.129 2°53.575 8.6627 3.463239 32.484732 -0.164791
2010-11-25 15:13:24 51°14.171 2°53.703 8.6627 3.462923 32.48523 -0.164791
2010-11-25 15:14:24 51°14.204 2°53.811 8.6649 3.463872 32.492837 -0.199615
2010-11-25 15:15:24 51°14.223 2°53.889 8.6665 3.464083 32.49655 -0.234439
2010-11-25 15:16:24 51°14.238 2°53.958 8.6666 3.46598 32.512521 -0.199615
2010-11-25 15:17:24 51°14.275 2°54.027 8.6702 3.466929 32.520127 -0.164791
2010-11-25 15:18:24 51°14.316 2°54.073 8.6719 3.466929 32.520127 -0.164791
2010-11-25 15:19:24 51°14.411 2°54.095 8.6828 3.467456 32.524098 -0.199615
2010-11-25 15:20:24 51°14.561 2°54.101 8.7002 3.472622 32.565745 -0.164791
2010-11-25 15:21:24 51°14.645 2°54.132 8.709 3.482637 32.654065 -0.199615
2010-11-25 15:22:24 51°14.694 2°54.172 8.7174 3.492231 32.746353 -0.234439
2010-11-25 15:23:23 51°14.718 2°54.215 8.7212 3.497607 32.795479 -0.234439
2010-11-25 15:24:24 51°14.743 2°54.268 8.7281 3.500137 32.816479 -0.269263
2010-11-25 15:25:24 51°14.789 2°54.297 8.7281 3.501508 32.827694 -0.234439
2010-11-25 15:26:24 51°14.823 2°54.29 8.7327 3.504144 32.850552 -0.234439
2010-11-25 15:27:24 51°14.839 2°54.278 8.7365 3.506885 32.870676 -0.269263
2010-11-25 15:28:24 51°14.858 2°54.26 8.7314 3.508782 32.891971 -0.234439
2010-11-25 15:29:24 51°14.869 2°54.226 8.7366 3.510258 32.907343 -0.269263
2010-11-25 15:30:24 51°14.827 2°54.21 8.7162 3.511207 32.915693 -0.234439
2010-11-25 15:31:24 51°14.786 2°54.329 8.7257 3.50931 32.917401 -0.269263
2010-11-25 15:32:24 51°14.732 2°54.574 8.8745 3.508993 32.905667 -0.269263
2010-11-25 15:33:24 51°14.626 2°54.861 9.0787 0.072344 0.518353 -0.513031
2010-11-25 15:34:24 51°14.467 2°55.089 9.1907 0.064124 0.457118 -0.547855
2010-11-25 15:35:24 51°14.301 2°55.256 9.3031 0.059442 0.422412 -0.547855
2010-11-25 15:36:24 51°14.174 2°55.37 9.4364 0.056217 0.398383 -0.513031
2010-11-25 15:37:24 51°14.059 2°55.453 9.5616 0.053928 0.381099 -0.547855
2010-11-25 15:38:24 51°13.942 2°55.54 9.6825 0.052056 0.366968 -0.513031
2010-11-25 15:39:24 51°13.83 2°55.623 9.8068 0.050287 0.353717 -0.513031
2010-11-25 15:40:24 51°13.758 2°55.72 9.9172 0.048831 0.34283 -0.513031
2010-11-25 15:41:24 51°13.706 2°55.821 10.0102 0.047687 0.334264 -0.513031
2010-11-25 15:42:24 51°13.673 2°55.911 10.1521 0.046647 0.326475 -0.513031
2010-11-25 15:43:24 51°13.662 2°55.959 10.2691 0.045814 0.320233 -0.547855
2010-11-25 15:44:24 51°13.661 2°55.962 10.3734 0.044566 0.310993 -0.513031
2010-11-25 15:45:27 51°13.662 2°55.963 10.4751 0.043838 0.305561 -0.513031
2010-11-25 15:46:28 51°13.661 2°55.964 10.5787 0.043422 0.302361 -0.513031
2010-11-25 15:47:28 51°13.661 2°55.962 10.6862 0.043006 0.29912 -0.513031